createdAt,value
2023-05-19T00:01:15.293Z,16.50
2023-05-19T00:03:53.899Z,16.50
2023-05-19T00:06:29.516Z,16.50
2023-05-19T00:09:00.476Z,16.50
2023-05-19T00:11:30.023Z,16.40
2023-05-19T00:14:03.194Z,16.40
2023-05-19T00:16:32.601Z,16.40
2023-05-19T00:19:03.726Z,16.40
2023-05-19T00:21:33.122Z,16.40
2023-05-19T00:24:01.504Z,16.40
2023-05-19T00:26:29.979Z,16.40
2023-05-19T00:29:07.488Z,16.30
2023-05-19T00:31:36.627Z,16.30
2023-05-19T00:34:05.191Z,16.30
2023-05-19T00:36:33.832Z,16.30
2023-05-19T00:39:02.598Z,16.30
2023-05-19T00:41:31.254Z,16.20
2023-05-19T00:43:59.756Z,16.20
2023-05-19T00:46:30.478Z,16.10
2023-05-19T00:48:58.956Z,16.10
2023-05-19T00:51:29.900Z,16.10
2023-05-19T00:53:59.366Z,16.10
2023-05-19T00:56:28.200Z,16.00
2023-05-19T00:58:56.691Z,16.00
2023-05-19T01:01:26.922Z,16.00
2023-05-19T01:03:59.187Z,15.90
2023-05-19T01:06:29.700Z,15.90
2023-05-19T01:08:58.690Z,15.90
2023-05-19T01:11:27.130Z,15.90
2023-05-19T01:13:55.993Z,15.80
2023-05-19T01:16:32.234Z,15.90
2023-05-19T01:19:15.434Z,15.80
2023-05-19T01:22:23.694Z,15.80
2023-05-19T01:25:55.251Z,15.80
2023-05-19T01:29:03.137Z,15.80
2023-05-19T01:31:34.244Z,15.80
2023-05-19T01:34:04.998Z,15.80
2023-05-19T01:36:34.734Z,15.70
2023-05-19T01:39:05.275Z,15.70
2023-05-19T01:41:34.759Z,15.70
2023-05-19T01:44:04.275Z,15.70
2023-05-19T01:46:34.765Z,15.70
2023-05-19T01:49:05.505Z,15.60
2023-05-19T01:51:34.352Z,15.60
2023-05-19T01:54:03.108Z,15.70
2023-05-19T01:56:43.255Z,15.60
2023-05-19T01:59:32.458Z,15.60
2023-05-19T02:02:07.469Z,15.60
2023-05-19T02:04:45.750Z,15.50
2023-05-19T02:07:22.106Z,15.50
2023-05-19T02:10:04.037Z,15.40
2023-05-19T02:12:37.714Z,15.40
2023-05-19T02:15:10.794Z,15.40
2023-05-19T02:17:47.835Z,15.40
2023-05-19T02:20:17.321Z,15.30
2023-05-19T02:22:46.584Z,15.30
2023-05-19T02:25:15.557Z,15.30
2023-05-19T02:27:44.463Z,15.30
2023-05-19T02:30:13.564Z,15.30
2023-05-19T02:32:46.851Z,15.30
2023-05-19T02:35:15.702Z,15.20
2023-05-19T02:37:44.360Z,15.20
2023-05-19T02:40:13.142Z,15.20
2023-05-19T02:42:41.538Z,15.20
2023-05-19T02:45:11.911Z,15.10
2023-05-19T02:47:44.211Z,15.10
2023-05-19T02:50:12.884Z,15.10
2023-05-19T02:52:41.566Z,15.10
2023-05-19T02:55:16.886Z,15.10
2023-05-19T02:57:45.586Z,15.00
2023-05-19T03:00:15.570Z,15.00
2023-05-19T03:02:46.974Z,15.00
2023-05-19T03:05:15.804Z,15.00
2023-05-19T03:07:44.329Z,15.00
2023-05-19T03:10:12.866Z,14.90
2023-05-19T03:12:41.310Z,14.90
2023-05-19T03:15:13.112Z,14.90
2023-05-19T03:17:41.690Z,14.90
2023-05-19T03:20:13.123Z,14.90
2023-05-19T03:22:41.802Z,14.80
2023-05-19T03:25:11.389Z,14.90
2023-05-19T03:27:40.275Z,14.80
2023-05-19T03:30:10.825Z,14.80
2023-05-19T03:32:52.813Z,14.80
2023-05-19T03:35:22.996Z,14.70
2023-05-19T03:37:51.479Z,14.70
2023-05-19T03:40:19.958Z,14.70
2023-05-19T03:42:49.920Z,14.70
2023-05-19T03:45:18.626Z,14.70
2023-05-19T03:47:51.062Z,14.70
2023-05-19T03:50:44.681Z,14.70
2023-05-19T03:53:26.403Z,14.60
2023-05-19T03:55:56.731Z,14.60
2023-05-19T03:58:25.688Z,14.60
2023-05-19T04:00:55.516Z,14.60
2023-05-19T04:03:26.047Z,14.60
2023-05-19T04:05:56.260Z,14.60
2023-05-19T04:08:24.807Z,14.60
2023-05-19T04:10:53.488Z,14.60
2023-05-19T04:13:23.014Z,14.60
2023-05-19T04:15:51.557Z,14.60
2023-05-19T04:18:20.131Z,14.60
2023-05-19T04:20:48.919Z,14.60
2023-05-19T04:23:18.820Z,14.60
2023-05-19T04:25:48.766Z,14.60
2023-05-19T04:28:17.910Z,14.60
2023-05-19T04:30:47.314Z,14.60
2023-05-19T04:33:15.986Z,14.60
2023-05-19T04:35:45.200Z,14.60
2023-05-19T04:38:18.962Z,14.60
2023-05-19T04:40:52.082Z,14.60
2023-05-19T04:43:22.298Z,14.60
2023-05-19T04:45:52.171Z,14.60
2023-05-19T04:48:23.410Z,14.50
2023-05-19T04:50:53.153Z,14.60
2023-05-19T04:53:23.024Z,14.60
2023-05-19T04:55:52.991Z,14.60
2023-05-19T04:58:21.424Z,14.50
2023-05-19T05:00:50.780Z,14.50
2023-05-19T05:03:22.925Z,14.50
2023-05-19T05:05:52.967Z,14.60
2023-05-19T05:08:23.479Z,14.50
2023-05-19T05:10:55.585Z,14.50
2023-05-19T05:13:26.053Z,14.50
2023-05-19T05:15:56.316Z,14.50
2023-05-19T05:18:25.606Z,14.50
2023-05-19T05:20:55.660Z,14.50
2023-05-19T05:23:25.003Z,14.50
2023-05-19T05:25:56.413Z,14.50
2023-05-19T05:28:25.526Z,14.60
2023-05-19T05:30:56.398Z,14.60
2023-05-19T05:33:27.605Z,14.60
2023-05-19T05:35:56.263Z,14.60
2023-05-19T05:38:26.129Z,14.60
2023-05-19T05:40:56.383Z,14.60
2023-05-19T05:43:24.843Z,14.60
2023-05-19T05:45:58.978Z,14.60
2023-05-19T05:48:29.085Z,14.60
2023-05-19T05:50:59.542Z,14.60
2023-05-19T05:53:33.198Z,14.60
2023-05-19T05:56:06.414Z,14.60
2023-05-19T05:58:44.013Z,14.60
2023-05-19T06:01:12.959Z,14.60
2023-05-19T06:03:45.062Z,14.60
2023-05-19T06:06:16.925Z,14.70
2023-05-19T06:08:45.568Z,14.70
2023-05-19T06:11:15.925Z,14.70
2023-05-19T06:13:44.612Z,14.70
2023-05-19T06:16:20.909Z,14.70
2023-05-19T06:18:49.758Z,14.80
2023-05-19T06:21:18.228Z,14.80
2023-05-19T06:23:46.997Z,14.80
2023-05-19T06:26:16.824Z,14.90
2023-05-19T06:28:46.416Z,14.90
2023-05-19T06:31:16.481Z,14.90
2023-05-19T06:33:53.757Z,15.00
2023-05-19T06:36:22.859Z,15.00
2023-05-19T06:38:51.758Z,15.00
2023-05-19T06:41:21.960Z,15.10
2023-05-19T06:43:52.937Z,15.10
2023-05-19T06:46:23.974Z,15.20
2023-05-19T06:48:53.359Z,15.20
2023-05-19T06:51:25.760Z,15.30
2023-05-19T06:53:58.363Z,15.30
2023-05-19T06:56:28.340Z,15.30
2023-05-19T06:58:57.711Z,15.40
2023-05-19T07:01:32.113Z,15.40
2023-05-19T07:04:01.644Z,15.40
2023-05-19T07:06:31.696Z,15.50
2023-05-19T07:09:00.134Z,15.50
2023-05-19T07:11:31.803Z,15.50
2023-05-19T07:14:00.541Z,15.50
2023-05-19T07:16:32.521Z,15.50
2023-05-19T07:19:01.361Z,15.60
2023-05-19T07:21:30.149Z,15.60
2023-05-19T07:23:58.732Z,15.60
2023-05-19T07:26:30.956Z,15.70
2023-05-19T07:28:59.394Z,15.70
2023-05-19T07:31:27.732Z,15.70
2023-05-19T07:33:56.184Z,15.70
2023-05-19T07:36:25.004Z,15.80
2023-05-19T07:38:53.727Z,15.80
2023-05-19T07:41:23.277Z,15.90
2023-05-19T07:43:53.104Z,15.90
2023-05-19T07:46:22.022Z,16.00
2023-05-19T07:48:50.900Z,16.00
2023-05-19T07:51:19.437Z,16.00
2023-05-19T07:53:48.165Z,16.10
2023-05-19T07:56:17.060Z,16.10
2023-05-19T07:58:45.855Z,16.20
2023-05-19T08:01:15.653Z,16.20
2023-05-19T08:03:44.123Z,16.30
2023-05-19T08:06:12.741Z,16.40
2023-05-19T08:08:42.173Z,16.50
2023-05-19T08:11:10.656Z,16.60
2023-05-19T08:13:39.173Z,16.70
2023-05-19T08:16:08.579Z,16.80
2023-05-19T08:18:38.855Z,16.90
2023-05-19T08:21:07.454Z,17.00
2023-05-19T08:23:37.269Z,17.10
2023-05-19T08:26:06.313Z,17.20
2023-05-19T08:28:34.760Z,17.30
2023-05-19T08:31:03.297Z,17.40
2023-05-19T08:33:32.154Z,17.50
2023-05-19T08:36:02.178Z,17.60
2023-05-19T08:38:31.756Z,17.70
2023-05-19T08:41:00.253Z,17.70
2023-05-19T08:43:28.929Z,17.90
2023-05-19T08:45:58.293Z,17.90
2023-05-19T08:48:30.917Z,18.00
2023-05-19T08:51:15.891Z,18.10
2023-05-19T08:53:50.252Z,18.20
2023-05-19T08:56:24.328Z,18.30
2023-05-19T08:58:54.043Z,18.30
2023-05-19T09:01:24.521Z,18.40
2023-05-19T09:03:53.756Z,18.50
2023-05-19T09:06:25.022Z,18.60
2023-05-19T09:08:53.692Z,18.60
2023-05-19T09:11:22.802Z,18.70
2023-05-19T09:13:51.474Z,18.70
2023-05-19T09:16:19.985Z,18.70
2023-05-19T09:18:57.029Z,18.70
2023-05-19T09:21:34.060Z,18.80
2023-05-19T09:24:07.873Z,18.80
2023-05-19T09:26:40.949Z,18.90
2023-05-19T09:29:13.945Z,18.90
2023-05-19T09:31:51.519Z,19.00
2023-05-19T09:34:21.119Z,19.10
2023-05-19T09:36:51.911Z,19.10
2023-05-19T09:39:23.095Z,19.20
2023-05-19T09:41:54.420Z,19.30
2023-05-19T09:44:24.296Z,19.30
2023-05-19T09:46:54.400Z,19.40
2023-05-19T09:49:26.135Z,19.50
2023-05-19T09:51:58.713Z,19.60
2023-05-19T09:54:29.500Z,19.60
2023-05-19T09:57:00.642Z,19.70
2023-05-19T09:59:33.529Z,19.80
2023-05-19T10:02:03.365Z,19.80
2023-05-19T10:04:32.720Z,19.90
2023-05-19T10:07:06.014Z,20.00
2023-05-19T10:09:37.636Z,20.00
2023-05-19T10:12:07.144Z,20.10
2023-05-19T10:14:35.843Z,20.20
2023-05-19T10:17:05.510Z,20.20
2023-05-19T10:19:35.474Z,20.30
2023-05-19T10:22:06.767Z,20.30
2023-05-19T10:24:35.713Z,20.40
2023-05-19T10:27:09.095Z,20.50
2023-05-19T10:29:41.792Z,20.50
2023-05-19T10:32:16.784Z,20.60
2023-05-19T10:35:15.688Z,20.60
2023-05-19T10:37:53.036Z,20.70
2023-05-19T10:40:28.856Z,20.80
2023-05-19T10:43:23.303Z,20.80
2023-05-19T10:45:55.109Z,20.80
2023-05-19T10:48:23.654Z,20.80
2023-05-19T10:50:55.884Z,20.90
2023-05-19T10:53:33.001Z,20.90
2023-05-19T10:56:04.385Z,21.00
2023-05-19T10:58:52.220Z,21.00
2023-05-19T11:01:22.559Z,21.10
2023-05-19T11:03:53.616Z,21.10
2023-05-19T11:06:27.206Z,21.10
2023-05-19T11:09:02.171Z,21.10
2023-05-19T11:11:48.146Z,21.20
2023-05-19T11:14:19.627Z,21.20
2023-05-19T11:16:49.562Z,21.20
2023-05-19T11:19:27.487Z,21.30
2023-05-19T11:21:57.640Z,21.20
2023-05-19T11:24:39.934Z,21.30
2023-05-19T11:27:28.952Z,21.30
2023-05-19T11:29:59.281Z,21.30
2023-05-19T11:32:29.899Z,21.40
2023-05-19T11:34:59.214Z,21.40
2023-05-19T11:37:29.314Z,21.40
2023-05-19T11:40:01.635Z,21.40
2023-05-19T11:42:30.152Z,21.50
2023-05-19T11:44:58.762Z,21.50
2023-05-19T11:47:28.559Z,21.50
2023-05-19T11:49:57.657Z,21.60
2023-05-19T11:52:27.475Z,21.60
2023-05-19T11:54:56.850Z,21.70
2023-05-19T11:57:28.232Z,21.70
2023-05-19T11:59:57.029Z,21.80
2023-05-19T12:02:27.823Z,21.80
2023-05-19T12:04:56.639Z,21.90
2023-05-19T12:07:26.285Z,21.90
2023-05-19T12:09:56.487Z,21.90
2023-05-19T12:12:24.909Z,22.00
2023-05-19T12:14:55.108Z,22.00
2023-05-19T12:17:24.461Z,22.10
2023-05-19T12:19:53.096Z,22.10
2023-05-19T12:22:21.637Z,22.20
2023-05-19T12:24:51.994Z,22.20
2023-05-19T12:27:22.374Z,22.20
2023-05-19T12:29:52.845Z,22.30
2023-05-19T12:32:25.623Z,22.30
2023-05-19T12:34:54.822Z,22.40
2023-05-19T12:37:23.600Z,22.40
2023-05-19T12:39:52.276Z,22.40
2023-05-19T12:42:20.696Z,22.40
2023-05-19T12:44:51.587Z,22.40
2023-05-19T12:47:23.894Z,22.40
2023-05-19T12:49:57.389Z,22.40
2023-05-19T12:52:26.213Z,22.40
2023-05-19T12:55:01.399Z,22.40
2023-05-19T12:57:31.613Z,22.50
2023-05-19T13:00:07.051Z,22.50
2023-05-19T13:02:56.104Z,22.50
2023-05-19T13:05:25.072Z,22.50
2023-05-19T13:07:58.526Z,22.60
2023-05-19T13:10:28.211Z,22.60
2023-05-19T13:12:58.902Z,22.60
2023-05-19T13:15:31.712Z,22.60
2023-05-19T13:18:03.374Z,22.70
2023-05-19T13:20:32.325Z,22.70
2023-05-19T13:23:01.627Z,22.80
2023-05-19T13:25:30.734Z,22.80
2023-05-19T13:28:02.105Z,22.80
2023-05-19T13:30:30.766Z,22.90
2023-05-19T13:32:59.471Z,22.90
2023-05-19T13:35:29.924Z,22.90
2023-05-19T13:37:58.799Z,22.90
2023-05-19T13:40:28.286Z,23.00
2023-05-19T13:42:56.936Z,23.00
2023-05-19T13:45:25.640Z,23.10
2023-05-19T13:47:54.429Z,23.10
2023-05-19T13:50:23.146Z,23.20
2023-05-19T13:52:53.801Z,23.20
2023-05-19T13:55:23.356Z,23.30
2023-05-19T13:57:52.089Z,23.30
2023-05-19T14:00:21.486Z,23.30
2023-05-19T14:02:50.264Z,23.30
2023-05-19T14:05:18.908Z,23.30
2023-05-19T14:07:47.589Z,23.30
2023-05-19T14:10:17.756Z,23.30
2023-05-19T14:13:12.320Z,23.30
2023-05-19T14:15:37.825Z,23.30
2023-05-19T14:18:07.374Z,23.30
2023-05-19T14:20:36.915Z,23.20
2023-05-19T14:23:05.595Z,23.20
2023-05-19T14:25:35.823Z,23.20
2023-05-19T14:28:04.377Z,23.20
2023-05-19T14:30:33.613Z,23.20
2023-05-19T14:33:02.114Z,23.20
2023-05-19T14:35:31.845Z,23.20
2023-05-19T14:38:00.310Z,23.20
2023-05-19T14:40:28.746Z,23.30
2023-05-19T14:42:58.840Z,23.30
2023-05-19T14:45:27.473Z,23.30
2023-05-19T14:47:55.992Z,23.30
2023-05-19T14:50:24.436Z,23.40
2023-05-19T14:52:52.779Z,23.40
2023-05-19T14:55:21.299Z,23.40
2023-05-19T14:57:50.165Z,23.40
2023-05-19T15:00:20.813Z,23.40
2023-05-19T15:02:49.535Z,23.40
2023-05-19T15:05:18.121Z,23.50
2023-05-19T15:07:46.501Z,23.50
2023-05-19T15:10:14.996Z,23.50
2023-05-19T15:12:43.831Z,23.60
2023-05-19T15:15:13.078Z,23.60
2023-05-19T15:17:43.066Z,23.60
2023-05-19T15:20:13.431Z,23.60
2023-05-19T15:22:41.843Z,23.60
2023-05-19T15:25:11.362Z,23.60
2023-05-19T15:27:40.177Z,23.60
2023-05-19T15:30:09.965Z,23.60
2023-05-19T15:32:38.669Z,23.60
2023-05-19T15:35:10.835Z,23.50
2023-05-19T15:37:39.320Z,23.50
2023-05-19T15:40:10.531Z,23.50
2023-05-19T15:42:39.276Z,23.50
2023-05-19T15:45:10.104Z,23.40
2023-05-19T15:47:38.776Z,23.40
2023-05-19T15:50:11.239Z,23.40
2023-05-19T15:52:39.925Z,23.30
2023-05-19T15:55:10.204Z,23.30
2023-05-19T15:57:38.988Z,23.30
2023-05-19T16:00:09.395Z,23.20
2023-05-19T16:02:37.871Z,23.20
2023-05-19T16:05:09.141Z,23.20
2023-05-19T16:07:37.559Z,23.10
2023-05-19T16:10:07.434Z,23.10
2023-05-19T16:12:36.720Z,23.10
2023-05-19T16:15:06.375Z,23.10
2023-05-19T16:17:35.394Z,23.10
2023-05-19T16:20:04.060Z,23.00
2023-05-19T16:22:34.314Z,23.00
2023-05-19T16:25:02.815Z,23.00
2023-05-19T16:27:31.633Z,23.00
2023-05-19T16:30:01.115Z,23.00
2023-05-19T16:32:29.799Z,23.00
2023-05-19T16:34:58.261Z,23.10
2023-05-19T16:37:26.678Z,23.00
2023-05-19T16:39:56.586Z,23.00
2023-05-19T16:42:25.428Z,23.00
2023-05-19T16:44:53.995Z,23.00
2023-05-19T16:47:22.396Z,23.00
2023-05-19T16:49:50.820Z,23.00
2023-05-19T16:52:20.069Z,23.00
2023-05-19T16:54:49.322Z,23.00
2023-05-19T16:57:19.248Z,23.00
2023-05-19T16:59:49.602Z,22.90
2023-05-19T17:02:18.165Z,22.90
2023-05-19T17:04:46.960Z,22.90
2023-05-19T17:07:16.085Z,22.90
2023-05-19T17:09:45.221Z,22.90
2023-05-19T17:12:13.839Z,22.90
2023-05-19T17:14:44.190Z,22.90
2023-05-19T17:17:12.638Z,22.90
2023-05-19T17:19:41.094Z,22.80
2023-05-19T17:22:09.770Z,22.90
2023-05-19T17:24:38.309Z,22.90
2023-05-19T17:27:06.953Z,22.90
2023-05-19T17:29:36.970Z,22.80
2023-05-19T17:32:07.912Z,22.80
2023-05-19T17:34:36.425Z,22.80
2023-05-19T17:37:05.181Z,22.70
2023-05-19T17:39:33.983Z,22.80
2023-05-19T17:42:03.579Z,22.70
2023-05-19T17:44:32.071Z,22.60
2023-05-19T17:47:01.633Z,22.60
2023-05-19T17:49:31.496Z,22.60
2023-05-19T17:52:00.927Z,22.60
2023-05-19T17:54:30.067Z,22.60
2023-05-19T17:57:03.355Z,22.60
2023-05-19T17:59:32.792Z,22.60
2023-05-19T18:02:02.975Z,22.50
2023-05-19T18:04:34.360Z,22.50
2023-05-19T18:07:05.659Z,22.50
2023-05-19T18:09:38.566Z,22.50
2023-05-19T18:12:08.081Z,22.50
2023-05-19T18:14:36.730Z,22.50
2023-05-19T18:17:05.755Z,22.50
2023-05-19T18:19:35.582Z,22.40
2023-05-19T18:22:04.167Z,22.40
2023-05-19T18:24:32.720Z,22.40
2023-05-19T18:27:01.715Z,22.40
2023-05-19T18:29:30.134Z,22.40
2023-05-19T18:31:58.665Z,22.40
2023-05-19T18:34:27.712Z,22.30
2023-05-19T18:36:57.626Z,22.30
2023-05-19T18:39:27.950Z,22.30
2023-05-19T18:41:57.872Z,22.20
2023-05-19T18:44:26.410Z,22.20
2023-05-19T18:46:54.908Z,22.10
2023-05-19T18:49:25.343Z,22.10
2023-05-19T18:51:54.055Z,22.10
2023-05-19T18:54:24.012Z,22.00
2023-05-19T18:56:52.479Z,22.00
2023-05-19T18:59:20.879Z,22.00
2023-05-19T19:01:49.628Z,21.90
2023-05-19T19:04:18.269Z,21.90
2023-05-19T19:06:47.759Z,21.90
2023-05-19T19:09:17.002Z,21.80
2023-05-19T19:11:47.357Z,21.80
2023-05-19T19:14:15.957Z,21.70
2023-05-19T19:16:44.778Z,21.70
2023-05-19T19:19:13.416Z,21.60
2023-05-19T19:21:43.252Z,21.60
2023-05-19T19:24:11.741Z,21.50
2023-05-19T19:26:40.274Z,21.50
2023-05-19T19:29:10.909Z,21.50
2023-05-19T19:31:39.671Z,21.50
2023-05-19T19:34:09.478Z,21.40
2023-05-19T19:36:38.226Z,21.40
2023-05-19T19:39:06.798Z,21.40
2023-05-19T19:41:35.710Z,21.40
2023-05-19T19:44:04.217Z,21.30
2023-05-19T19:46:34.139Z,21.30
2023-05-19T19:49:02.627Z,21.30
2023-05-19T19:51:31.622Z,21.30
2023-05-19T19:54:00.348Z,21.30
2023-05-19T19:56:28.781Z,21.20
2023-05-19T19:58:59.064Z,21.20
2023-05-19T20:01:28.215Z,21.20
2023-05-19T20:03:58.659Z,21.20
2023-05-19T20:06:27.439Z,21.10
2023-05-19T20:08:56.013Z,21.10
2023-05-19T20:11:26.589Z,21.10
2023-05-19T20:13:55.095Z,21.10
2023-05-19T20:16:24.222Z,21.00
2023-05-19T20:18:52.796Z,21.00
2023-05-19T20:21:22.708Z,21.00
2023-05-19T20:23:51.225Z,21.00
2023-05-19T20:26:20.566Z,20.90
2023-05-19T20:28:49.104Z,20.90
2023-05-19T20:31:17.515Z,20.90
2023-05-19T20:33:46.210Z,20.90
2023-05-19T20:36:14.703Z,20.80
2023-05-19T20:38:44.948Z,20.80
2023-05-19T20:41:13.399Z,20.80
2023-05-19T20:43:42.421Z,20.80
2023-05-19T20:46:11.183Z,20.70
2023-05-19T20:48:39.609Z,20.70
2023-05-19T20:51:08.478Z,20.70
2023-05-19T20:53:37.150Z,20.70
2023-05-19T20:56:10.536Z,20.70
2023-05-19T20:58:39.107Z,20.60
2023-05-19T21:01:07.667Z,20.60
2023-05-19T21:03:36.144Z,20.60
2023-05-19T21:06:05.045Z,20.60
2023-05-19T21:08:33.449Z,20.50
2023-05-19T21:11:01.849Z,20.50
2023-05-19T21:13:32.191Z,20.50
2023-05-19T21:16:00.943Z,20.40
2023-05-19T21:18:29.699Z,20.40
2023-05-19T21:20:58.385Z,20.40
2023-05-19T21:23:26.940Z,20.40
2023-05-19T21:25:57.145Z,20.30
2023-05-19T21:28:25.757Z,20.30
2023-05-19T21:30:56.436Z,20.30
2023-05-19T21:33:24.887Z,20.30
2023-05-19T21:35:53.295Z,20.20
2023-05-19T21:38:24.361Z,20.20
2023-05-19T21:40:53.320Z,20.20
2023-05-19T21:43:22.558Z,20.10
2023-05-19T21:45:50.973Z,20.10
2023-05-19T21:48:21.521Z,20.10
2023-05-19T21:50:54.662Z,20.10
2023-05-19T21:53:23.265Z,20.10
2023-05-19T21:55:51.855Z,20.00
2023-05-19T21:58:20.776Z,20.10
2023-05-19T22:00:54.445Z,20.00
2023-05-19T22:03:24.608Z,20.00
2023-05-19T22:05:55.302Z,20.00
2023-05-19T22:08:24.539Z,20.00
2023-05-19T22:10:53.915Z,20.00
2023-05-19T22:13:22.725Z,20.00
2023-05-19T22:15:51.322Z,20.00
2023-05-19T22:18:19.983Z,20.00
2023-05-19T22:20:50.148Z,20.00
2023-05-19T22:23:18.781Z,20.00
2023-05-19T22:25:47.559Z,19.90
2023-05-19T22:28:16.536Z,19.90
2023-05-19T22:30:45.359Z,19.90
2023-05-19T22:33:14.714Z,19.80
2023-05-19T22:35:43.596Z,19.80
2023-05-19T22:38:13.521Z,19.80
2023-05-19T22:40:42.022Z,19.80
2023-05-19T22:43:10.654Z,19.70
2023-05-19T22:45:39.361Z,19.70
2023-05-19T22:48:08.221Z,19.60
2023-05-19T22:50:36.850Z,19.60
2023-05-19T22:53:05.678Z,19.50
2023-05-19T22:55:36.148Z,19.50
2023-05-19T22:58:04.845Z,19.50
2023-05-19T23:00:33.504Z,19.50
2023-05-19T23:03:02.078Z,19.50
2023-05-19T23:05:31.068Z,19.40
2023-05-19T23:07:59.816Z,19.40
2023-05-19T23:10:28.529Z,19.40
2023-05-19T23:12:58.499Z,19.40
2023-05-19T23:15:26.987Z,19.40
2023-05-19T23:17:55.502Z,19.40
2023-05-19T23:20:24.450Z,19.30
2023-05-19T23:22:52.890Z,19.30
2023-05-19T23:25:21.346Z,19.30
2023-05-19T23:27:50.395Z,19.30
2023-05-19T23:30:20.339Z,19.30
2023-05-19T23:32:48.747Z,19.20
2023-05-19T23:35:18.720Z,19.20
2023-05-19T23:37:47.472Z,19.20
2023-05-19T23:40:16.413Z,19.10
2023-05-19T23:42:45.383Z,19.10
2023-05-19T23:45:13.797Z,19.10
2023-05-19T23:47:43.978Z,19.00
2023-05-19T23:50:12.760Z,19.00
2023-05-19T23:52:41.183Z,19.00
2023-05-19T23:55:12.720Z,18.90
2023-05-19T23:57:41.200Z,18.90
